FFL693 KJAX-KTLH
Flight info
| Callsign | FFL693 |
|---|---|
| Flight time | 0h 42m |
| Altitude | 24000 |
| Route | KVLD GEF |
| Aircraft | PC12/L-SDFGRWY/S |
Departure
| Time | 2026-04-24 20:21 |
|---|---|
| Airport | Jacksonville International Airport (KJAX) |
Arrival
| Time | 2026-04-24 21:04 |
|---|---|
| Airport | Tallahassee International Airport (KTLH) |
| Time | Latitude | Longitude | Altitude | Speed | Heading |
|---|---|---|---|---|---|
| 2026-04-24 20:19 | 30.50145 | -81.67478 | 30 ft | 18 kts | 70° |
| 2026-04-24 20:19 | 30.50183 | -81.67351 | 30 ft | 16 kts | 69° |
| 2026-04-24 20:19 | 30.50222 | -81.67225 | 28 ft | 19 kts | 71° |
| 2026-04-24 20:19 | 30.50276 | -81.67075 | 29 ft | 17 kts | 18° |
| 2026-04-24 20:20 | 30.50397 | -81.67116 | 30 ft | 16 kts | 341° |
| 2026-04-24 20:20 | 30.50455 | -81.67139 | 29 ft | 9 kts | 341° |
| 2026-04-24 20:20 | 30.50474 | -81.67220 | 28 ft | 16 kts | 251° |
| 2026-04-24 20:20 | 30.50417 | -81.67408 | 26 ft | 43 kts | 248° |
| 2026-04-24 20:21 | 30.50249 | -81.67937 | 35 ft | 92 kts | 250° |
| 2026-04-24 20:21 | 30.50016 | -81.68733 | 132 ft | 113 kts | 246° |
| 2026-04-24 20:21 | 30.49742 | -81.69651 | 323 ft | 130 kts | 249° |
| 2026-04-24 20:21 | 30.49438 | -81.70735 | 647 ft | 139 kts | 250° |
| 2026-04-24 20:22 | 30.49171 | -81.71730 | 1364 ft | 121 kts | 249° |
| 2026-04-24 20:22 | 30.48933 | -81.72622 | 2035 ft | 113 kts | 250° |
| 2026-04-24 20:22 | 30.48687 | -81.73503 | 2506 ft | 115 kts | 250° |
| 2026-04-24 20:22 | 30.48436 | -81.74373 | 2935 ft | 113 kts | 250° |
| 2026-04-24 20:23 | 30.48178 | -81.75231 | 3360 ft | 113 kts | 250° |
| 2026-04-24 20:23 | 30.47904 | -81.76119 | 3725 ft | 121 kts | 250° |
| 2026-04-24 20:23 | 30.47617 | -81.77074 | 4096 ft | 129 kts | 258° |
| 2026-04-24 20:23 | 30.47760 | -81.78098 | 4483 ft | 136 kts | 286° |
| 2026-04-24 20:24 | 30.48035 | -81.79201 | 4864 ft | 149 kts | 284° |
| 2026-04-24 20:24 | 30.48298 | -81.80403 | 5292 ft | 156 kts | 283° |
| 2026-04-24 20:24 | 30.48553 | -81.81623 | 5827 ft | 156 kts | 282° |
| 2026-04-24 20:24 | 30.48807 | -81.82847 | 6347 ft | 157 kts | 282° |
| 2026-04-24 20:25 | 30.49063 | -81.84083 | 6898 ft | 158 kts | 283° |
| 2026-04-24 20:25 | 30.49323 | -81.85327 | 7414 ft | 159 kts | 283° |
| 2026-04-24 20:25 | 30.49584 | -81.86577 | 7957 ft | 160 kts | 283° |
| 2026-04-24 20:25 | 30.49847 | -81.87839 | 8489 ft | 161 kts | 283° |
| 2026-04-24 20:26 | 30.50112 | -81.89105 | 9034 ft | 162 kts | 283° |
| 2026-04-24 20:26 | 30.50377 | -81.90378 | 9609 ft | 163 kts | 283° |
| 2026-04-24 20:26 | 30.50643 | -81.91658 | 10137 ft | 163 kts | 283° |
| 2026-04-24 20:26 | 30.50911 | -81.92943 | 10621 ft | 165 kts | 284° |
| 2026-04-24 20:27 | 30.51180 | -81.94235 | 11106 ft | 165 kts | 284° |
| 2026-04-24 20:27 | 30.51450 | -81.95537 | 11617 ft | 167 kts | 284° |
| 2026-04-24 20:27 | 30.51723 | -81.96845 | 12117 ft | 167 kts | 284° |
| 2026-04-24 20:27 | 30.51984 | -81.98165 | 12594 ft | 169 kts | 279° |
| 2026-04-24 20:28 | 30.52019 | -81.99531 | 13106 ft | 170 kts | 270° |
| 2026-04-24 20:28 | 30.52008 | -82.00903 | 13696 ft | 171 kts | 272° |
| 2026-04-24 20:28 | 30.52034 | -82.02286 | 14207 ft | 172 kts | 273° |
| 2026-04-24 20:28 | 30.52071 | -82.03677 | 14700 ft | 173 kts | 274° |
| 2026-04-24 20:29 | 30.52095 | -82.04604 | 15030 ft | 174 kts | 274° |
| 2026-04-24 20:29 | 30.52141 | -82.06488 | 15698 ft | 176 kts | 274° |
| 2026-04-24 20:29 | 30.52175 | -82.07910 | 16199 ft | 177 kts | 274° |
| 2026-04-24 20:29 | 30.52210 | -82.09339 | 16690 ft | 178 kts | 275° |
| 2026-04-24 20:30 | 30.52245 | -82.10778 | 17165 ft | 179 kts | 275° |
| 2026-04-24 20:30 | 30.52279 | -82.12227 | 17631 ft | 180 kts | 275° |
| 2026-04-24 20:30 | 30.52314 | -82.13685 | 18093 ft | 182 kts | 275° |
| 2026-04-24 20:30 | 30.52349 | -82.15152 | 18505 ft | 183 kts | 275° |
| 2026-04-24 20:31 | 30.52380 | -82.16630 | 18887 ft | 184 kts | 275° |
| 2026-04-24 20:31 | 30.52413 | -82.18118 | 19266 ft | 185 kts | 275° |
| 2026-04-24 20:31 | 30.52447 | -82.19617 | 19652 ft | 187 kts | 275° |
| 2026-04-24 20:31 | 30.52483 | -82.21126 | 20003 ft | 187 kts | 275° |
| 2026-04-24 20:32 | 30.52521 | -82.22643 | 20252 ft | 190 kts | 275° |
| 2026-04-24 20:32 | 30.52556 | -82.24177 | 20550 ft | 190 kts | 275° |
| 2026-04-24 20:32 | 30.52590 | -82.25716 | 20835 ft | 191 kts | 275° |
| 2026-04-24 20:32 | 30.52625 | -82.27264 | 21130 ft | 193 kts | 274° |
| 2026-04-24 20:33 | 30.52660 | -82.28799 | 21414 ft | 194 kts | 274° |
| 2026-04-24 20:33 | 30.52695 | -82.30385 | 21702 ft | 195 kts | 274° |
| 2026-04-24 20:33 | 30.52730 | -82.31958 | 22000 ft | 196 kts | 274° |
| 2026-04-24 20:33 | 30.52765 | -82.33518 | 22292 ft | 197 kts | 274° |
| 2026-04-24 20:34 | 30.52799 | -82.35109 | 22571 ft | 198 kts | 274° |
| 2026-04-24 20:34 | 30.52834 | -82.36709 | 22850 ft | 199 kts | 274° |
| 2026-04-24 20:34 | 30.52869 | -82.38313 | 23121 ft | 200 kts | 274° |
| 2026-04-24 20:34 | 30.52903 | -82.39929 | 23395 ft | 201 kts | 274° |
| 2026-04-24 20:35 | 30.52938 | -82.41552 | 23646 ft | 202 kts | 274° |
| 2026-04-24 20:35 | 30.52973 | -82.43181 | 23872 ft | 203 kts | 274° |
| 2026-04-24 20:35 | 30.53008 | -82.44841 | 23959 ft | 211 kts | 274° |
| 2026-04-24 20:35 | 30.53046 | -82.46585 | 23961 ft | 221 kts | 274° |
| 2026-04-24 20:36 | 30.53084 | -82.48398 | 23961 ft | 228 kts | 274° |
| 2026-04-24 20:36 | 30.53122 | -82.50264 | 23960 ft | 234 kts | 274° |
| 2026-04-24 20:36 | 30.53161 | -82.52166 | 23963 ft | 238 kts | 274° |
| 2026-04-24 20:36 | 30.53200 | -82.54097 | 23964 ft | 241 kts | 274° |
| 2026-04-24 20:37 | 30.53239 | -82.56049 | 23965 ft | 243 kts | 274° |
| 2026-04-24 20:37 | 30.53279 | -82.58010 | 23966 ft | 244 kts | 274° |
| 2026-04-24 20:37 | 30.53318 | -82.59983 | 23964 ft | 245 kts | 274° |
| 2026-04-24 20:37 | 30.53357 | -82.61961 | 23968 ft | 246 kts | 274° |
| 2026-04-24 20:38 | 30.53396 | -82.63939 | 23966 ft | 246 kts | 274° |
| 2026-04-24 20:38 | 30.53435 | -82.65923 | 23972 ft | 246 kts | 274° |
| 2026-04-24 20:38 | 30.53473 | -82.67907 | 23971 ft | 246 kts | 274° |
| 2026-04-24 20:38 | 30.53511 | -82.69892 | 23969 ft | 246 kts | 274° |
| 2026-04-24 20:39 | 30.53549 | -82.71879 | 23971 ft | 246 kts | 274° |
| 2026-04-24 20:39 | 30.53587 | -82.73863 | 23974 ft | 246 kts | 274° |
| 2026-04-24 20:39 | 30.53624 | -82.75850 | 23973 ft | 246 kts | 274° |
| 2026-04-24 20:39 | 30.53661 | -82.77833 | 23973 ft | 246 kts | 274° |
| 2026-04-24 20:40 | 30.53698 | -82.79819 | 23973 ft | 246 kts | 274° |
| 2026-04-24 20:40 | 30.53734 | -82.81799 | 23972 ft | 246 kts | 274° |
| 2026-04-24 20:40 | 30.53770 | -82.83779 | 23971 ft | 245 kts | 274° |
| 2026-04-24 20:40 | 30.53806 | -82.85758 | 23974 ft | 245 kts | 274° |
| 2026-04-24 20:41 | 30.53841 | -82.87735 | 23974 ft | 245 kts | 274° |
| 2026-04-24 20:41 | 30.53876 | -82.89713 | 23976 ft | 245 kts | 274° |
| 2026-04-24 20:41 | 30.53910 | -82.91689 | 23974 ft | 245 kts | 274° |
| 2026-04-24 20:41 | 30.53945 | -82.93668 | 23977 ft | 245 kts | 274° |
| 2026-04-24 20:42 | 30.53979 | -82.95647 | 23976 ft | 246 kts | 274° |
| 2026-04-24 20:42 | 30.54013 | -82.97632 | 23975 ft | 246 kts | 274° |
| 2026-04-24 20:42 | 30.54049 | -82.99641 | 23637 ft | 252 kts | 274° |
| 2026-04-24 20:42 | 30.54083 | -83.01680 | 23250 ft | 254 kts | 274° |
| 2026-04-24 20:43 | 30.54116 | -83.03729 | 22849 ft | 254 kts | 274° |
| 2026-04-24 20:43 | 30.54149 | -83.05783 | 22452 ft | 255 kts | 274° |
| 2026-04-24 20:43 | 30.54183 | -83.07836 | 22061 ft | 254 kts | 274° |
| 2026-04-24 20:43 | 30.54216 | -83.09885 | 21676 ft | 254 kts | 274° |
| 2026-04-24 20:44 | 30.54249 | -83.11928 | 21299 ft | 253 kts | 274° |
| 2026-04-24 20:44 | 30.54281 | -83.13969 | 20927 ft | 253 kts | 274° |
| 2026-04-24 20:44 | 30.54313 | -83.16004 | 20557 ft | 252 kts | 274° |
| 2026-04-24 20:44 | 30.54344 | -83.18033 | 20193 ft | 251 kts | 274° |
| 2026-04-24 20:45 | 30.54376 | -83.20058 | 19832 ft | 251 kts | 274° |
| 2026-04-24 20:45 | 30.54406 | -83.22086 | 19475 ft | 251 kts | 274° |
| 2026-04-24 20:45 | 30.54437 | -83.24113 | 19121 ft | 251 kts | 274° |
| 2026-04-24 20:45 | 30.54467 | -83.26139 | 18780 ft | 251 kts | 274° |
| 2026-04-24 20:46 | 30.54497 | -83.28163 | 18433 ft | 251 kts | 274° |
| 2026-04-24 20:46 | 30.54527 | -83.30188 | 18063 ft | 251 kts | 274° |
| 2026-04-24 20:46 | 30.54556 | -83.32202 | 17669 ft | 250 kts | 274° |
| 2026-04-24 20:46 | 30.54585 | -83.34220 | 17281 ft | 250 kts | 274° |
| 2026-04-24 20:47 | 30.54614 | -83.36235 | 16893 ft | 250 kts | 274° |
| 2026-04-24 20:47 | 30.54641 | -83.38218 | 16520 ft | 249 kts | 274° |
| 2026-04-24 20:47 | 30.54669 | -83.40229 | 16145 ft | 249 kts | 273° |
| 2026-04-24 20:47 | 30.54697 | -83.42242 | 15776 ft | 250 kts | 273° |
| 2026-04-24 20:48 | 30.54724 | -83.44250 | 15411 ft | 249 kts | 273° |
| 2026-04-24 20:48 | 30.54751 | -83.46252 | 15049 ft | 247 kts | 273° |
| 2026-04-24 20:48 | 30.54777 | -83.48245 | 14690 ft | 247 kts | 272° |
| 2026-04-24 20:48 | 30.54803 | -83.50231 | 14338 ft | 246 kts | 272° |
| 2026-04-24 20:49 | 30.54827 | -83.52214 | 13989 ft | 245 kts | 272° |
| 2026-04-24 20:49 | 30.54852 | -83.54189 | 13628 ft | 245 kts | 272° |
| 2026-04-24 20:49 | 30.54877 | -83.56161 | 13234 ft | 244 kts | 272° |
| 2026-04-24 20:49 | 30.54901 | -83.58130 | 12849 ft | 244 kts | 272° |
| 2026-04-24 20:50 | 30.54926 | -83.60092 | 12467 ft | 243 kts | 272° |
| 2026-04-24 20:50 | 30.54949 | -83.62047 | 12089 ft | 242 kts | 272° |
| 2026-04-24 20:50 | 30.54973 | -83.63996 | 11717 ft | 242 kts | 272° |
| 2026-04-24 20:50 | 30.54996 | -83.65941 | 11344 ft | 240 kts | 272° |
| 2026-04-24 20:51 | 30.55019 | -83.67874 | 11029 ft | 238 kts | 272° |
| 2026-04-24 20:51 | 30.55038 | -83.69742 | 11018 ft | 226 kts | 272° |
| 2026-04-24 20:51 | 30.55057 | -83.71557 | 10787 ft | 227 kts | 272° |
| 2026-04-24 20:51 | 30.55080 | -83.73413 | 10427 ft | 232 kts | 272° |
| 2026-04-24 20:52 | 30.55103 | -83.75299 | 10072 ft | 235 kts | 272° |
| 2026-04-24 20:52 | 30.55124 | -83.77206 | 9709 ft | 237 kts | 272° |
| 2026-04-24 20:52 | 30.54945 | -83.79088 | 9317 ft | 236 kts | 256° |
| 2026-04-24 20:52 | 30.54446 | -83.80904 | 8930 ft | 237 kts | 253° |
| 2026-04-24 20:53 | 30.53936 | -83.82722 | 8552 ft | 237 kts | 254° |
| 2026-04-24 20:53 | 30.53443 | -83.84546 | 8178 ft | 237 kts | 254° |
| 2026-04-24 20:53 | 30.52955 | -83.86372 | 7809 ft | 237 kts | 254° |
| 2026-04-24 20:53 | 30.52464 | -83.88196 | 7444 ft | 237 kts | 254° |
| 2026-04-24 20:54 | 30.51971 | -83.90016 | 7082 ft | 236 kts | 253° |
| 2026-04-24 20:54 | 30.51480 | -83.91828 | 6722 ft | 235 kts | 253° |
| 2026-04-24 20:54 | 30.50990 | -83.93635 | 6355 ft | 234 kts | 253° |
| 2026-04-24 20:54 | 30.50503 | -83.95429 | 5988 ft | 233 kts | 253° |
| 2026-04-24 20:55 | 30.50016 | -83.97221 | 5611 ft | 233 kts | 252° |
| 2026-04-24 20:55 | 30.49532 | -83.99013 | 5244 ft | 233 kts | 252° |
| 2026-04-24 20:55 | 30.49046 | -84.00803 | 4879 ft | 233 kts | 251° |
| 2026-04-24 20:55 | 30.48563 | -84.02580 | 4622 ft | 228 kts | 251° |
| 2026-04-24 20:56 | 30.48085 | -84.04328 | 4381 ft | 227 kts | 250° |
| 2026-04-24 20:56 | 30.47611 | -84.06068 | 4125 ft | 225 kts | 251° |
| 2026-04-24 20:56 | 30.47142 | -84.07796 | 3876 ft | 224 kts | 250° |
| 2026-04-24 20:56 | 30.46672 | -84.09522 | 3632 ft | 225 kts | 250° |
| 2026-04-24 20:57 | 30.46441 | -84.11304 | 3390 ft | 226 kts | 269° |
| 2026-04-24 20:57 | 30.46573 | -84.13126 | 3139 ft | 227 kts | 274° |
| 2026-04-24 20:57 | 30.46754 | -84.14912 | 3002 ft | 222 kts | 274° |
| 2026-04-24 20:57 | 30.46944 | -84.16660 | 3012 ft | 216 kts | 274° |
| 2026-04-24 20:58 | 30.47140 | -84.18404 | 2848 ft | 222 kts | 275° |
| 2026-04-24 20:58 | 30.47336 | -84.20191 | 2582 ft | 223 kts | 275° |
| 2026-04-24 20:58 | 30.47531 | -84.21967 | 2336 ft | 222 kts | 275° |
| 2026-04-24 20:58 | 30.47727 | -84.23744 | 2098 ft | 223 kts | 275° |
| 2026-04-24 20:59 | 30.47919 | -84.25520 | 1979 ft | 217 kts | 274° |
| 2026-04-24 20:59 | 30.48110 | -84.27201 | 1991 ft | 206 kts | 275° |
| 2026-04-24 20:59 | 30.48289 | -84.28813 | 1980 ft | 197 kts | 274° |
| 2026-04-24 20:59 | 30.48474 | -84.30372 | 1997 ft | 196 kts | 275° |
| 2026-04-24 21:00 | 30.48659 | -84.31878 | 1999 ft | 179 kts | 275° |
| 2026-04-24 21:00 | 30.48721 | -84.33215 | 2034 ft | 157 kts | 260° |
| 2026-04-24 21:00 | 30.48562 | -84.34001 | 2053 ft | 141 kts | 245° |
| 2026-04-24 21:00 | 30.48058 | -84.34876 | 2006 ft | 123 kts | 221° |
| 2026-04-24 21:01 | 30.47388 | -84.35366 | 1919 ft | 106 kts | 200° |
| 2026-04-24 21:01 | 30.46765 | -84.35563 | 1963 ft | 85 kts | 193° |
| 2026-04-24 21:01 | 30.46190 | -84.35689 | 1846 ft | 84 kts | 190° |
| 2026-04-24 21:01 | 30.45606 | -84.35794 | 1706 ft | 84 kts | 190° |
| 2026-04-24 21:02 | 30.44989 | -84.35856 | 1332 ft | 89 kts | 187° |
| 2026-04-24 21:02 | 30.44399 | -84.35908 | 1081 ft | 83 kts | 185° |
| 2026-04-24 21:02 | 30.43823 | -84.35901 | 835 ft | 83 kts | 185° |
| 2026-04-24 21:02 | 30.43252 | -84.35928 | 657 ft | 83 kts | 179° |
| 2026-04-24 21:03 | 30.42684 | -84.35916 | 550 ft | 78 kts | 177° |
| 2026-04-24 21:03 | 30.42156 | -84.35896 | 414 ft | 74 kts | 181° |
| 2026-04-24 21:03 | 30.41645 | -84.35906 | 256 ft | 72 kts | 175° |
| 2026-04-24 21:03 | 30.41139 | -84.35896 | 120 ft | 72 kts | 177° |
| 2026-04-24 21:04 | 30.40677 | -84.35893 | 83 ft | 58 kts | 178° |
| 2026-04-24 21:04 | 30.40332 | -84.35890 | 71 ft | 39 kts | 181° |
| 2026-04-24 21:04 | 30.40118 | -84.35888 | 69 ft | 27 kts | 178° |
| 2026-04-24 21:04 | 30.39954 | -84.35812 | 64 ft | 24 kts | 148° |
| 2026-04-24 21:05 | 30.39816 | -84.35756 | 68 ft | 17 kts | 178° |
| 2026-04-24 21:05 | 30.39712 | -84.35754 | 67 ft | 14 kts | 179° |
| 2026-04-24 21:05 | 30.39623 | -84.35743 | 66 ft | 11 kts | 152° |
| 2026-04-24 21:05 | 30.39613 | -84.35721 | 66 ft | 0 kts | 104° |